Time;durP1;ratioP1;P1;durP2;ratioP2;P2;SDS_P1;SDS_P2;PMS_P1;PMS_P2;Temp;Humidity;BMP_temperature;BMP_pressure;BME280_temperature;BME280_humidity;BME280_pressure;Samples;Min_cycle;Max_cycle;Signal;HPM_P1;HPM_P2
2024/01/26 00:00:23;;;;;;;16.60;4.32;;;;;;;;;;4965529;28;20030;-80
2024/01/26 00:02:49;;;;;;;21.92;4.70;;;;;;;;;;4988205;28;20402;-81
2024/01/26 00:05:14;;;;;;;21.83;4.60;;;;;;;;;;4980429;28;20397;-80
2024/01/26 00:07:40;;;;;;;21.73;4.93;;;;;;;;;;4985012;28;20109;-80
2024/01/26 00:10:06;;;;;;;24.40;5.47;;;;;;;;;;4976525;28;20536;-82
2024/01/26 00:12:33;;;;;;;19.30;4.90;;;;;;;;;;4980718;28;20501;-80
2024/01/26 00:14:58;;;;;;;24.95;5.47;;;;;;;;;;4973131;28;20046;-80
2024/01/26 00:17:24;;;;;;;21.15;5.68;;;;;;;;;;4986876;28;20129;-79
2024/01/26 00:19:52;;;;;;;32.00;7.22;;;;;;;;;;4988098;28;20078;-80
2024/01/26 00:22:18;;;;;;;22.83;5.85;;;;;;;;;;4986896;28;20038;-79
2024/01/26 00:24:43;;;;;;;19.70;6.18;;;;;;;;;;4978472;28;20026;-82
2024/01/26 00:27:09;;;;;;;23.40;6.78;;;;;;;;;;4973660;28;20038;-81
2024/01/26 00:29:34;;;;;;;20.13;6.22;;;;;;;;;;4986409;28;20045;-82
2024/01/26 00:32:01;;;;;;;20.60;6.35;;;;;;;;;;4998084;28;20569;-82
2024/01/26 00:34:27;;;;;;;21.98;6.07;;;;;;;;;;4989039;28;20041;-81
2024/01/26 00:36:52;;;;;;;24.27;6.15;;;;;;;;;;4992992;28;20039;-81
2024/01/26 00:39:18;;;;;;;18.52;5.55;;;;;;;;;;4974687;28;20536;-81
2024/01/26 00:41:44;;;;;;;20.73;5.07;;;;;;;;;;4992907;28;20053;-81
2024/01/26 00:44:09;;;;;;;22.83;6.60;;;;;;;;;;4961384;28;20038;-81
2024/01/26 00:46:36;;;;;;;24.10;5.50;;;;;;;;;;4965214;28;20435;-81
2024/01/26 00:49:02;;;;;;;22.40;4.95;;;;;;;;;;4957232;28;20058;-82
2024/01/26 00:51:27;;;;;;;19.67;5.32;;;;;;;;;;4986729;28;20057;-81
2024/01/26 00:53:53;;;;;;;20.38;5.32;;;;;;;;;;4987557;28;20035;-81
2024/01/26 00:56:18;;;;;;;21.58;5.10;;;;;;;;;;4987639;28;20077;-81
2024/01/26 00:58:43;;;;;;;20.42;5.03;;;;;;;;;;4972050;28;20042;-81
2024/01/26 01:01:09;;;;;;;22.98;5.00;;;;;;;;;;4988386;28;20108;-81
2024/01/26 01:03:35;;;;;;;17.13;4.72;;;;;;;;;;4976236;28;20030;-82
2024/01/26 01:06:00;;;;;;;20.42;5.68;;;;;;;;;;4971695;28;20088;-81
2024/01/26 01:08:26;;;;;;;21.58;5.03;;;;;;;;;;4963290;28;20034;-79
2024/01/26 01:10:51;;;;;;;15.82;4.32;;;;;;;;;;4971163;28;20043;-82
2024/01/26 01:13:16;;;;;;;23.05;5.50;;;;;;;;;;4988737;28;20046;-80
2024/01/26 01:15:42;;;;;;;13.45;4.47;;;;;;;;;;4987049;28;20034;-80
2024/01/26 01:18:07;;;;;;;21.27;4.85;;;;;;;;;;4973027;28;20030;-80
2024/01/26 01:20:33;;;;;;;21.90;4.88;;;;;;;;;;4988187;28;20031;-81
2024/01/26 01:22:59;;;;;;;15.73;4.15;;;;;;;;;;4970448;28;20498;-80
2024/01/26 01:25:25;;;;;;;23.38;4.82;;;;;;;;;;4982754;28;20034;-80
2024/01/26 01:27:53;;;;;;;27.90;5.85;;;;;;;;;;4961770;28;20053;-80
2024/01/26 01:30:18;;;;;;;21.42;4.65;;;;;;;;;;4987706;28;20133;-80
2024/01/26 01:32:44;;;;;;;23.90;5.70;;;;;;;;;;4986203;28;20117;-80
2024/01/26 01:35:10;;;;;;;16.35;4.72;;;;;;;;;;4987417;28;20045;-80
2024/01/26 01:37:35;;;;;;;19.23;5.10;;;;;;;;;;4985666;28;20118;-82
2024/01/26 01:40:01;;;;;;;22.95;4.75;;;;;;;;;;4985783;28;20093;-80
2024/01/26 01:43:19;;;;;;;20.15;4.57;;;;;;;;;;4985464;28;20049;-80
2024/01/26 01:46:37;;;;;;;22.13;5.72;;;;;;;;;;4984153;28;20397;-80
2024/01/26 01:49:55;;;;;;;21.42;5.07;;;;;;;;;;4978296;28;20478;-81
2024/01/26 01:52:21;;;;;;;25.30;4.90;;;;;;;;;;4984130;28;20041;-80
2024/01/26 01:54:49;;;;;;;22.73;5.85;;;;;;;;;;4988664;28;20463;-81
2024/01/26 01:57:44;;;;;;;27.85;5.85;;;;;;;;;;4970761;28;20125;-80
2024/01/26 02:00:16;;;;;;;20.42;5.43;;;;;;;;;;4969890;28;20044;-80
2024/01/26 02:02:46;;;;;;;24.25;6.00;;;;;;;;;;4973066;28;20117;-81
2024/01/26 02:05:12;;;;;;;22.48;6.28;;;;;;;;;;4986495;28;20030;-80
2024/01/26 02:07:38;;;;;;;23.90;5.38;;;;;;;;;;4963444;28;20066;-81
2024/01/26 02:10:09;;;;;;;21.30;5.45;;;;;;;;;;4983053;28;20042;-81
2024/01/26 02:12:36;;;;;;;29.65;6.55;;;;;;;;;;4972414;28;20033;-81
2024/01/26 02:15:03;;;;;;;19.48;5.65;;;;;;;;;;4986151;28;20169;-81
2024/01/26 02:17:32;;;;;;;28.00;5.90;;;;;;;;;;4971289;28;20503;-80
2024/01/26 02:19:58;;;;;;;18.40;5.22;;;;;;;;;;4987276;28;20453;-81
2024/01/26 02:22:24;;;;;;;21.25;5.88;;;;;;;;;;4984964;28;20482;-81
2024/01/26 02:25:42;;;;;;;19.30;5.40;;;;;;;;;;4986933;28;20034;-80
2024/01/26 02:29:00;;;;;;;18.70;5.72;;;;;;;;;;4967498;28;20035;-80
2024/01/26 02:31:25;;;;;;;21.38;5.80;;;;;;;;;;4932348;28;20039;-81
2024/01/26 02:33:51;;;;;;;25.23;6.18;;;;;;;;;;4944409;28;20042;-80
2024/01/26 02:37:10;;;;;;;18.42;5.45;;;;;;;;;;4950153;28;20031;-80
2024/01/26 02:40:13;;;;;;;23.63;6.22;;;;;;;;;;4949149;28;20083;-80
2024/01/26 02:42:38;;;;;;;17.83;5.35;;;;;;;;;;4963668;28;20553;-80
2024/01/26 02:45:04;;;;;;;27.52;6.13;;;;;;;;;;4971386;28;20037;-82
2024/01/26 02:47:29;;;;;;;26.17;6.88;;;;;;;;;;4942025;28;20043;-80
2024/01/26 02:49:55;;;;;;;19.75;6.05;;;;;;;;;;4961992;28;20401;-80
2024/01/26 02:52:20;;;;;;;32.05;6.30;;;;;;;;;;4942526;28;20039;-80
2024/01/26 02:54:47;;;;;;;24.38;5.93;;;;;;;;;;4951925;28;20078;-80
2024/01/26 02:57:14;;;;;;;25.87;6.63;;;;;;;;;;4937464;28;20125;-83
2024/01/26 03:00:32;;;;;;;19.55;5.80;;;;;;;;;;4969242;28;20330;-81
2024/01/26 03:03:35;;;;;;;22.83;6.88;;;;;;;;;;4930476;28;20047;-80
2024/01/26 03:06:03;;;;;;;24.25;6.22;;;;;;;;;;4931225;28;20039;-81
2024/01/26 03:09:02;;;;;;;26.70;6.55;;;;;;;;;;4955272;28;20047;-81
2024/01/26 03:11:36;;;;;;;27.02;6.47;;;;;;;;;;4942494;28;20062;-81
2024/01/26 03:14:54;;;;;;;19.85;5.88;;;;;;;;;;4970286;28;20041;-81
2024/01/26 03:18:04;;;;;;;18.23;6.15;;;;;;;;;;4969685;28;20046;-81
2024/01/26 03:21:23;;;;;;;20.92;6.40;;;;;;;;;;4970973;28;20049;-81
2024/01/26 03:24:33;;;;;;;22.20;6.30;;;;;;;;;;4945638;28;20043;-81
2024/01/26 03:27:51;;;;;;;25.13;6.13;;;;;;;;;;4966350;28;20072;-83
2024/01/26 03:30:48;;;;;;;24.40;6.40;;;;;;;;;;4951805;28;20047;-81
2024/01/26 03:33:13;;;;;;;17.63;5.80;;;;;;;;;;4974344;28;20398;-81
2024/01/26 03:36:31;;;;;;;21.77;6.25;;;;;;;;;;4983697;28;20049;-81
2024/01/26 03:39:49;;;;;;;22.65;6.18;;;;;;;;;;4978688;28;20058;-80
2024/01/26 03:42:18;;;;;;;21.17;6.32;;;;;;;;;;4958110;28;20557;-81
2024/01/26 03:44:43;;;;;;;23.67;6.53;;;;;;;;;;4969622;28;20035;-80
2024/01/26 03:47:10;;;;;;;29.05;8.55;;;;;;;;;;4987815;28;20096;-81
2024/01/26 03:49:35;;;;;;;25.50;6.72;;;;;;;;;;4957797;28;20391;-81
2024/01/26 03:52:01;;;;;;;23.35;6.85;;;;;;;;;;4974721;28;20035;-81
2024/01/26 03:54:26;;;;;;;20.20;6.60;;;;;;;;;;4981700;28;20419;-80
2024/01/26 03:56:52;;;;;;;24.50;6.32;;;;;;;;;;4981833;28;20118;-80
2024/01/26 03:59:18;;;;;;;24.23;6.57;;;;;;;;;;5005053;28;20041;-80
2024/01/26 04:01:46;;;;;;;18.92;6.43;;;;;;;;;;4968233;28;20042;-80
2024/01/26 04:04:12;;;;;;;24.80;7.13;;;;;;;;;;4986233;28;20031;-81
2024/01/26 04:06:41;;;;;;;21.38;6.45;;;;;;;;;;4968644;28;20470;-81
2024/01/26 04:09:10;;;;;;;18.42;6.40;;;;;;;;;;4953622;28;20027;-80
2024/01/26 04:11:35;;;;;;;22.55;6.80;;;;;;;;;;4963068;28;20055;-80
2024/01/26 04:14:04;;;;;;;19.98;6.85;;;;;;;;;;4955502;28;20081;-80
2024/01/26 04:16:29;;;;;;;19.02;5.95;;;;;;;;;;4967014;28;20039;-81
2024/01/26 04:18:54;;;;;;;19.05;6.28;;;;;;;;;;4977760;28;20042;-81
2024/01/26 04:21:20;;;;;;;24.05;7.18;;;;;;;;;;4973894;28;20038;-81
2024/01/26 04:23:45;;;;;;;22.40;6.72;;;;;;;;;;4970199;28;20038;-81
2024/01/26 04:26:11;;;;;;;22.88;7.00;;;;;;;;;;4968542;28;20034;-81
2024/01/26 04:28:37;;;;;;;25.92;8.15;;;;;;;;;;4972001;28;20398;-81
2024/01/26 04:31:03;;;;;;;25.88;6.95;;;;;;;;;;4982833;28;20169;-81
2024/01/26 04:33:29;;;;;;;21.98;7.28;;;;;;;;;;4960454;28;20630;-80
2024/01/26 04:35:54;;;;;;;24.30;7.47;;;;;;;;;;4988157;28;20125;-81
2024/01/26 04:38:20;;;;;;;25.88;7.70;;;;;;;;;;4976885;28;20117;-81
2024/01/26 04:40:45;;;;;;;21.65;7.40;;;;;;;;;;4971080;28;20053;-81
2024/01/26 04:43:11;;;;;;;22.50;7.10;;;;;;;;;;4976120;28;20509;-81
2024/01/26 04:45:36;;;;;;;25.45;7.55;;;;;;;;;;4988196;28;20441;-81
2024/01/26 04:48:03;;;;;;;27.08;7.60;;;;;;;;;;4987836;28;20043;-80
2024/01/26 04:50:28;;;;;;;25.40;7.17;;;;;;;;;;4981677;28;20038;-82
2024/01/26 04:52:54;;;;;;;22.33;8.30;;;;;;;;;;4972454;28;20096;-82
2024/01/26 04:55:31;;;;;;;23.38;7.78;;;;;;;;;;4972281;28;20045;-82
2024/01/26 04:57:56;;;;;;;21.15;7.13;;;;;;;;;;4989269;28;20461;-82
2024/01/26 05:00:22;;;;;;;26.00;8.07;;;;;;;;;;4988102;28;20035;-80
2024/01/26 05:02:48;;;;;;;22.17;8.05;;;;;;;;;;4973450;28;20069;-81
2024/01/26 05:05:14;;;;;;;22.73;7.57;;;;;;;;;;4968936;28;20522;-81
2024/01/26 05:07:39;;;;;;;19.80;7.18;;;;;;;;;;4984793;28;20053;-80
2024/01/26 05:10:06;;;;;;;23.20;7.55;;;;;;;;;;4986970;28;20117;-81
2024/01/26 05:12:32;;;;;;;17.97;7.00;;;;;;;;;;4983691;28;20125;-81
2024/01/26 05:14:57;;;;;;;24.50;7.05;;;;;;;;;;4987545;28;20058;-82
2024/01/26 05:17:23;;;;;;;20.48;7.63;;;;;;;;;;4989208;28;20034;-82
2024/01/26 05:19:48;;;;;;;22.85;7.30;;;;;;;;;;4987207;28;20053;-82
2024/01/26 05:22:13;;;;;;;20.20;8.07;;;;;;;;;;4991090;28;20031;-81
2024/01/26 05:24:39;;;;;;;20.95;7.30;;;;;;;;;;4987529;28;20125;-82
2024/01/26 05:27:05;;;;;;;20.48;7.78;;;;;;;;;;4986001;28;20386;-82
2024/01/26 05:29:30;;;;;;;22.95;7.53;;;;;;;;;;4970598;28;20053;-82
2024/01/26 05:31:55;;;;;;;21.40;7.55;;;;;;;;;;4985071;28;20041;-82
2024/01/26 05:34:21;;;;;;;21.20;7.07;;;;;;;;;;4986612;28;20501;-81
2024/01/26 05:36:46;;;;;;;19.88;7.03;;;;;;;;;;4986935;28;20088;-82
2024/01/26 05:39:12;;;;;;;22.08;7.47;;;;;;;;;;4985301;28;20041;-82
2024/01/26 05:41:37;;;;;;;23.27;7.93;;;;;;;;;;4967327;28;20042;-83
2024/01/26 05:44:03;;;;;;;22.30;7.18;;;;;;;;;;4967484;28;20042;-82
2024/01/26 05:46:28;;;;;;;29.63;8.10;;;;;;;;;;4973090;28;20383;-82
2024/01/26 05:48:56;;;;;;;20.63;7.68;;;;;;;;;;4985521;28;20038;-82
2024/01/26 05:51:21;;;;;;;20.92;6.82;;;;;;;;;;4971003;28;20537;-81
2024/01/26 05:53:49;;;;;;;17.48;6.90;;;;;;;;;;4971791;28;20038;-82
2024/01/26 05:56:15;;;;;;;18.17;7.15;;;;;;;;;;4982952;28;20039;-82
2024/01/26 05:58:40;;;;;;;19.35;7.03;;;;;;;;;;4986892;28;21284;-82
2024/01/26 06:01:06;;;;;;;24.73;7.18;;;;;;;;;;4975411;28;20540;-81
2024/01/26 06:03:31;;;;;;;21.63;6.82;;;;;;;;;;4987318;28;20103;-80
2024/01/26 06:05:57;;;;;;;21.17;7.43;;;;;;;;;;4969919;28;20046;-81
2024/01/26 06:08:22;;;;;;;20.90;7.78;;;;;;;;;;4986676;28;20034;-80
2024/01/26 06:10:48;;;;;;;16.65;6.88;;;;;;;;;;4989617;28;20443;-81
2024/01/26 06:13:13;;;;;;;22.88;7.30;;;;;;;;;;4971588;28;20046;-81
2024/01/26 06:15:39;;;;;;;20.05;6.85;;;;;;;;;;4985859;28;20405;-81
2024/01/26 06:18:04;;;;;;;23.40;7.82;;;;;;;;;;4990297;28;20121;-81
2024/01/26 06:20:31;;;;;;;19.58;6.78;;;;;;;;;;4991056;28;20030;-81
2024/01/26 06:23:00;;;;;;;22.83;7.03;;;;;;;;;;4986333;28;20034;-81
2024/01/26 06:25:26;;;;;;;21.35;7.53;;;;;;;;;;4989354;28;20274;-81
2024/01/26 06:27:51;;;;;;;19.42;7.45;;;;;;;;;;4968607;28;20047;-81
2024/01/26 06:30:17;;;;;;;24.95;8.02;;;;;;;;;;4967213;28;20039;-81
2024/01/26 06:32:43;;;;;;;24.45;8.32;;;;;;;;;;4955197;28;20063;-81
2024/01/26 06:35:10;;;;;;;22.70;7.00;;;;;;;;;;4956582;28;20065;-81
2024/01/26 06:37:38;;;;;;;20.95;7.43;;;;;;;;;;4955528;28;20042;-81
2024/01/26 06:40:04;;;;;;;22.35;7.38;;;;;;;;;;4951653;28;20051;-82
2024/01/26 06:42:30;;;;;;;19.88;7.07;;;;;;;;;;4951235;28;20134;-80
2024/01/26 06:44:56;;;;;;;26.48;7.38;;;;;;;;;;4945625;28;20487;-82
2024/01/26 06:47:21;;;;;;;18.60;7.25;;;;;;;;;;4965654;28;20041;-81
2024/01/26 06:49:46;;;;;;;26.48;7.75;;;;;;;;;;4988360;28;20127;-81
2024/01/26 06:52:12;;;;;;;24.35;8.00;;;;;;;;;;4986856;28;20049;-81
2024/01/26 06:54:40;;;;;;;22.60;6.90;;;;;;;;;;4967236;28;20046;-81
2024/01/26 06:57:06;;;;;;;24.27;7.75;;;;;;;;;;4984852;28;20046;-81
2024/01/26 06:59:37;;;;;;;23.38;7.60;;;;;;;;;;4972135;28;20031;-82
2024/01/26 07:02:24;;;;;;;28.25;7.43;;;;;;;;;;4984280;28;20089;-81
2024/01/26 07:04:52;;;;;;;18.17;6.93;;;;;;;;;;4879998;29;20135;-81
2024/01/26 07:07:17;;;;;;;30.75;7.70;;;;;;;;;;4889701;29;20093;-81
2024/01/26 07:09:43;;;;;;;26.75;7.60;;;;;;;;;;4891826;29;20036;-81
2024/01/26 07:12:08;;;;;;;25.73;7.75;;;;;;;;;;4881785;29;20044;-81
2024/01/26 07:14:34;;;;;;;21.58;8.10;;;;;;;;;;4863722;29;20047;-82
2024/01/26 07:17:00;;;;;;;23.48;7.75;;;;;;;;;;4911258;29;20048;-81
2024/01/26 07:19:25;;;;;;;22.35;7.75;;;;;;;;;;4895661;29;20040;-82
2024/01/26 07:21:50;;;;;;;23.52;7.25;;;;;;;;;;4896859;29;20063;-82
2024/01/26 07:24:16;;;;;;;24.50;8.02;;;;;;;;;;4897496;29;20040;-81
2024/01/26 07:26:41;;;;;;;21.65;7.25;;;;;;;;;;4912213;29;20040;-81
2024/01/26 07:29:07;;;;;;;22.42;8.02;;;;;;;;;;4897303;29;20556;-81
2024/01/26 07:31:32;;;;;;;25.08;8.25;;;;;;;;;;4894861;29;20040;-82
2024/01/26 07:33:57;;;;;;;18.38;6.97;;;;;;;;;;4892210;29;20043;-82
2024/01/26 07:36:23;;;;;;;25.80;8.50;;;;;;;;;;4906676;29;20178;-81
2024/01/26 07:38:48;;;;;;;24.08;7.40;;;;;;;;;;4921227;29;20044;-82
2024/01/26 07:41:14;;;;;;;20.92;7.28;;;;;;;;;;4911197;28;20039;-80
2024/01/26 07:43:39;;;;;;;25.20;7.38;;;;;;;;;;4934324;28;20050;-82
2024/01/26 07:46:05;;;;;;;21.27;7.18;;;;;;;;;;4953580;28;20396;-82
2024/01/26 07:48:30;;;;;;;21.20;6.85;;;;;;;;;;4962133;28;20090;-81
2024/01/26 07:50:56;;;;;;;21.75;7.00;;;;;;;;;;4955702;28;20489;-80
2024/01/26 07:53:21;;;;;;;20.80;7.53;;;;;;;;;;4954077;28;20054;-80
2024/01/26 07:55:46;;;;;;;16.08;7.07;;;;;;;;;;4955649;28;20039;-81
2024/01/26 07:58:12;;;;;;;26.95;7.10;;;;;;;;;;4953963;28;20039;-81
2024/01/26 08:00:37;;;;;;;23.33;7.03;;;;;;;;;;4952011;28;20050;-81
2024/01/26 08:03:03;;;;;;;21.60;6.43;;;;;;;;;;4958252;28;20039;-80
2024/01/26 08:05:29;;;;;;;20.40;6.82;;;;;;;;;;4932039;28;20062;-80
2024/01/26 08:07:57;;;;;;;18.10;6.95;;;;;;;;;;4958459;28;20038;-80
2024/01/26 08:10:22;;;;;;;19.50;7.45;;;;;;;;;;4953407;28;20045;-80
2024/01/26 08:12:48;;;;;;;24.35;6.93;;;;;;;;;;4937460;28;20406;-80
2024/01/26 08:15:14;;;;;;;28.70;7.75;;;;;;;;;;4949912;28;20098;-81
2024/01/26 08:17:39;;;;;;;16.88;6.78;;;;;;;;;;4949582;28;20491;-81
2024/01/26 08:20:05;;;;;;;26.35;7.68;;;;;;;;;;4965247;28;20122;-81
2024/01/26 08:22:31;;;;;;;24.75;8.18;;;;;;;;;;4949780;28;20529;-80
2024/01/26 08:25:00;;;;;;;20.75;7.15;;;;;;;;;;4934076;28;20033;-80
2024/01/26 08:27:26;;;;;;;22.98;6.68;;;;;;;;;;4960193;28;20110;-80
2024/01/26 08:29:51;;;;;;;23.80;6.90;;;;;;;;;;4961674;28;20043;-80
2024/01/26 08:32:17;;;;;;;22.02;6.43;;;;;;;;;;4927673;29;20039;-80
2024/01/26 08:34:42;;;;;;;20.42;6.47;;;;;;;;;;4946435;28;20526;-81
2024/01/26 08:37:08;;;;;;;25.35;7.07;;;;;;;;;;4945773;28;20051;-81
2024/01/26 08:39:36;;;;;;;24.17;6.72;;;;;;;;;;4948913;28;20483;-80
2024/01/26 08:42:02;;;;;;;24.15;6.38;;;;;;;;;;4930693;28;20027;-82
2024/01/26 08:44:32;;;;;;;23.17;6.43;;;;;;;;;;4936428;28;20039;-81
2024/01/26 08:46:58;;;;;;;20.08;6.65;;;;;;;;;;4948002;28;20036;-82
2024/01/26 08:49:24;;;;;;;19.92;6.50;;;;;;;;;;4941400;28;20482;-80
2024/01/26 08:51:53;;;;;;;19.95;6.18;;;;;;;;;;4940213;28;20050;-82
2024/01/26 08:54:18;;;;;;;21.50;6.60;;;;;;;;;;4961980;28;20041;-81
2024/01/26 08:56:44;;;;;;;22.50;6.88;;;;;;;;;;4968281;28;20483;-81
2024/01/26 08:59:10;;;;;;;18.45;6.38;;;;;;;;;;4953946;28;20045;-81
2024/01/26 09:01:36;;;;;;;20.02;6.68;;;;;;;;;;4953058;28;20038;-82
2024/01/26 09:04:05;;;;;;;17.07;6.30;;;;;;;;;;4960928;28;20091;-82
2024/01/26 09:06:30;;;;;;;20.30;5.97;;;;;;;;;;4953751;28;20059;-81
2024/01/26 09:09:16;;;;;;;18.80;6.85;;;;;;;;;;4950116;28;20097;-82
2024/01/26 09:11:41;;;;;;;17.10;6.00;;;;;;;;;;4950409;28;20615;-83
2024/01/26 09:14:07;;;;;;;18.55;6.13;;;;;;;;;;4947406;28;20039;-82
2024/01/26 09:16:32;;;;;;;21.83;6.65;;;;;;;;;;4914069;28;20035;-81
2024/01/26 09:18:58;;;;;;;19.77;6.65;;;;;;;;;;4965453;28;20114;-81
2024/01/26 09:21:23;;;;;;;24.67;7.22;;;;;;;;;;4944569;28;20031;-81
2024/01/26 09:23:49;;;;;;;22.67;5.88;;;;;;;;;;4948830;28;20043;-81
2024/01/26 09:26:14;;;;;;;20.85;7.00;;;;;;;;;;4916548;28;20039;-81
2024/01/26 09:28:40;;;;;;;14.88;6.10;;;;;;;;;;4963633;28;20071;-81
2024/01/26 09:31:05;;;;;;;21.05;6.72;;;;;;;;;;4913231;29;20134;-81
2024/01/26 09:33:33;;;;;;;18.73;6.15;;;;;;;;;;4923375;29;20070;-82
2024/01/26 09:35:58;;;;;;;17.33;6.57;;;;;;;;;;4901790;29;20035;-81
2024/01/26 09:38:24;;;;;;;20.95;6.57;;;;;;;;;;4918724;29;20400;-82
2024/01/26 09:40:50;;;;;;;15.15;6.10;;;;;;;;;;4892703;29;20201;-81
2024/01/26 09:43:17;;;;;;;19.95;6.20;;;;;;;;;;4925533;29;20054;-82
2024/01/26 09:45:43;;;;;;;17.97;6.10;;;;;;;;;;4912385;29;20107;-83
2024/01/26 09:48:09;;;;;;;16.95;5.78;;;;;;;;;;4904291;28;20046;-84
2024/01/26 09:50:35;;;;;;;18.00;6.00;;;;;;;;;;4948605;28;20406;-82
2024/01/26 09:53:02;;;;;;;21.73;6.20;;;;;;;;;;4953721;28;20034;-82
2024/01/26 09:55:31;;;;;;;15.07;5.93;;;;;;;;;;4969377;28;20058;-82
2024/01/26 09:57:57;;;;;;;18.52;6.82;;;;;;;;;;4947477;28;20121;-82
2024/01/26 10:00:22;;;;;;;16.05;5.63;;;;;;;;;;4955732;28;20126;-82
2024/01/26 10:02:49;;;;;;;18.15;5.85;;;;;;;;;;4953251;28;20035;-82
2024/01/26 10:05:20;;;;;;;15.77;5.32;;;;;;;;;;4950864;28;20114;-83
2024/01/26 10:07:46;;;;;;;19.40;5.55;;;;;;;;;;4960160;28;20042;-84
2024/01/26 10:10:14;;;;;;;17.70;6.07;;;;;;;;;;4944372;28;20575;-84
2024/01/26 10:12:45;;;;;;;18.73;5.97;;;;;;;;;;4946116;28;20035;-84
2024/01/26 10:15:11;;;;;;;18.60;5.82;;;;;;;;;;4961014;28;20053;-82
2024/01/26 10:17:37;;;;;;;22.35;5.53;;;;;;;;;;4966799;28;20122;-83
2024/01/26 10:20:18;;;;;;;17.98;5.93;;;;;;;;;;4965884;28;20039;-83
2024/01/26 10:22:45;;;;;;;12.10;5.28;;;;;;;;;;4967617;28;20089;-83
2024/01/26 10:25:14;;;;;;;17.13;5.35;;;;;;;;;;4970007;28;20033;-84
2024/01/26 10:27:40;;;;;;;17.35;6.55;;;;;;;;;;4964872;28;20039;-83
2024/01/26 10:30:06;;;;;;;18.10;6.20;;;;;;;;;;4963213;28;20035;-83
2024/01/26 10:32:35;;;;;;;19.23;6.03;;;;;;;;;;4966600;28;20035;-83
2024/01/26 10:35:02;;;;;;;19.83;6.20;;;;;;;;;;4946890;28;20506;-83
2024/01/26 10:37:34;;;;;;;;;;;;;;;;;;4968379;28;20035;-82
2024/01/26 10:40:01;;;;;;;16.70;5.60;;;;;;;;;;4966714;28;19925;-82
2024/01/26 10:42:30;;;;;;;67.82;9.15;;;;;;;;;;4967308;28;20039;-82
2024/01/26 10:44:58;;;;;;;19.58;6.05;;;;;;;;;;4970086;28;20041;-82
2024/01/26 10:47:26;;;;;;;21.38;5.72;;;;;;;;;;4968130;28;20499;-83
2024/01/26 10:49:57;;;;;;;12.93;5.25;;;;;;;;;;4971458;28;20035;-82
2024/01/26 10:52:24;;;;;;;11.68;5.10;;;;;;;;;;4950183;28;20043;-82
2024/01/26 10:54:51;;;;;;;14.95;5.13;;;;;;;;;;4948353;28;20079;-84
2024/01/26 10:57:21;;;;;;;15.05;4.95;;;;;;;;;;4947624;28;20042;-83
2024/01/26 11:00:05;;;;;;;11.98;4.72;;;;;;;;;;4950107;28;20035;-84
2024/01/26 11:02:33;;;;;;;13.00;5.47;;;;;;;;;;4932583;28;20145;-84
2024/01/26 11:05:02;;;;;;;12.77;4.95;;;;;;;;;;4969389;28;20286;-83
2024/01/26 11:07:31;;;;;;;13.10;5.32;;;;;;;;;;4950543;28;20126;-83
2024/01/26 11:10:03;;;;;;;12.27;4.63;;;;;;;;;;4983840;28;20039;-84
2024/01/26 11:12:32;;;;;;;11.77;4.45;;;;;;;;;;4958697;28;20031;-84
2024/01/26 11:15:10;;;;;;;11.15;4.70;;;;;;;;;;4937107;28;20454;-84
2024/01/26 11:17:52;;;;;;;16.13;4.80;;;;;;;;;;4959965;28;20034;-83
2024/01/26 11:20:25;;;;;;;11.77;4.97;;;;;;;;;;4960249;28;20503;-82
2024/01/26 11:23:21;;;;;;;11.23;4.90;;;;;;;;;;4962349;28;20398;-83
2024/01/26 11:25:50;;;;;;;14.52;5.30;;;;;;;;;;4917027;28;20043;-84
2024/01/26 11:28:17;;;;;;;9.75;4.50;;;;;;;;;;4974179;28;20487;-83
2024/01/26 11:30:51;;;;;;;11.80;4.70;;;;;;;;;;4960963;28;20132;-84
2024/01/26 11:33:21;;;;;;;11.35;4.75;;;;;;;;;;4983689;28;20046;-84
2024/01/26 11:35:47;;;;;;;10.52;4.80;;;;;;;;;;4988335;28;20047;-83
2024/01/26 11:38:13;;;;;;;8.07;4.28;;;;;;;;;;4972618;28;20034;-83
2024/01/26 11:40:39;;;;;;;13.85;5.03;;;;;;;;;;4990962;28;20879;-83
2024/01/26 11:43:04;;;;;;;11.82;4.80;;;;;;;;;;4972042;28;20363;-85
2024/01/26 11:45:32;;;;;;;12.50;4.50;;;;;;;;;;4987907;28;20382;-83
2024/01/26 11:47:58;;;;;;;20.13;5.15;;;;;;;;;;4974402;28;20053;-83
2024/01/26 11:50:23;;;;;;;9.88;4.30;;;;;;;;;;4964276;28;20115;-84
2024/01/26 11:52:50;;;;;;;12.57;4.57;;;;;;;;;;4972883;28;20031;-85
2024/01/26 11:55:16;;;;;;;10.93;4.70;;;;;;;;;;4990234;28;20375;-84
2024/01/26 11:57:41;;;;;;;9.63;3.80;;;;;;;;;;4986626;28;20049;-84
2024/01/26 12:00:15;;;;;;;9.40;4.30;;;;;;;;;;4989867;28;20038;-85
2024/01/26 12:02:40;;;;;;;9.45;4.13;;;;;;;;;;4988523;28;20425;-83
2024/01/26 12:05:06;;;;;;;10.07;4.45;;;;;;;;;;4969797;28;20034;-83
2024/01/26 12:07:32;;;;;;;9.70;4.00;;;;;;;;;;4986975;28;20133;-82
2024/01/26 12:09:58;;;;;;;10.18;4.07;;;;;;;;;;4989225;28;20484;-83
2024/01/26 12:12:24;;;;;;;11.63;4.30;;;;;;;;;;4988151;28;20034;-83
2024/01/26 12:14:49;;;;;;;8.82;3.97;;;;;;;;;;4988789;28;20359;-83
2024/01/26 12:17:16;;;;;;;12.48;5.10;;;;;;;;;;4987527;28;20046;-83
2024/01/26 12:19:41;;;;;;;12.45;5.07;;;;;;;;;;4987250;28;20489;-83
2024/01/26 12:22:07;;;;;;;11.30;4.13;;;;;;;;;;4987880;28;20096;-84
2024/01/26 12:24:34;;;;;;;9.63;4.55;;;;;;;;;;4989120;28;20176;-82
2024/01/26 12:27:04;;;;;;;11.37;5.53;;;;;;;;;;4986362;28;20030;-83
2024/01/26 12:29:29;;;;;;;9.43;5.07;;;;;;;;;;4992293;28;20129;-82
2024/01/26 12:32:05;;;;;;;13.57;5.75;;;;;;;;;;4975697;28;20485;-83
2024/01/26 12:34:31;;;;;;;11.05;5.32;;;;;;;;;;4987338;28;20064;-82
2024/01/26 12:37:03;;;;;;;13.77;5.38;;;;;;;;;;4986612;28;20042;-82
2024/01/26 12:39:29;;;;;;;13.35;5.53;;;;;;;;;;4987885;28;20034;-82
2024/01/26 12:41:55;;;;;;;11.88;5.82;;;;;;;;;;4989758;28;20034;-82
2024/01/26 12:44:29;;;;;;;11.15;6.45;;;;;;;;;;4987620;28;20598;-82
2024/01/26 12:46:59;;;;;;;13.48;5.22;;;;;;;;;;4968270;28;20038;-82
2024/01/26 12:49:25;;;;;;;13.70;5.70;;;;;;;;;;4986567;28;20034;-82
2024/01/26 12:51:51;;;;;;;11.50;5.55;;;;;;;;;;4987562;28;20038;-82
2024/01/26 12:54:16;;;;;;;13.73;6.18;;;;;;;;;;4985860;28;20050;-82
2024/01/26 12:56:42;;;;;;;14.70;6.85;;;;;;;;;;4986578;28;20403;-82
2024/01/26 12:59:08;;;;;;;13.55;6.30;;;;;;;;;;4987746;28;20924;-82
2024/01/26 13:01:34;;;;;;;13.82;5.97;;;;;;;;;;4963701;28;20026;-81
2024/01/26 13:04:00;;;;;;;11.45;6.15;;;;;;;;;;4986664;28;20112;-83
2024/01/26 13:06:25;;;;;;;13.10;6.50;;;;;;;;;;4984494;28;20121;-82
2024/01/26 13:08:51;;;;;;;12.45;6.20;;;;;;;;;;4984411;28;20043;-82
2024/01/26 13:11:16;;;;;;;12.52;6.07;;;;;;;;;;4988884;28;20444;-81
2024/01/26 13:13:43;;;;;;;14.93;6.05;;;;;;;;;;4986766;28;20109;-81
2024/01/26 13:16:09;;;;;;;13.63;6.28;;;;;;;;;;4988079;28;20038;-83
2024/01/26 13:18:35;;;;;;;12.23;6.63;;;;;;;;;;4986841;28;20050;-82
2024/01/26 13:21:01;;;;;;;12.95;6.05;;;;;;;;;;4981630;28;20037;-81
2024/01/26 13:23:26;;;;;;;10.23;6.18;;;;;;;;;;4987288;28;20023;-82
2024/01/26 13:25:54;;;;;;;12.35;6.07;;;;;;;;;;4987537;28;20391;-81
2024/01/26 13:28:20;;;;;;;12.68;5.95;;;;;;;;;;4986778;28;20038;-81
2024/01/26 13:30:46;;;;;;;14.80;6.20;;;;;;;;;;4983117;28;20100;-82
2024/01/26 13:33:12;;;;;;;15.45;6.28;;;;;;;;;;4985331;28;20392;-82
2024/01/26 13:35:37;;;;;;;14.55;5.88;;;;;;;;;;4987389;28;20046;-83
2024/01/26 13:38:03;;;;;;;10.85;5.70;;;;;;;;;;4974775;28;20030;-82
2024/01/26 13:40:28;;;;;;;8.77;5.13;;;;;;;;;;4985899;28;20556;-85
2024/01/26 13:42:54;;;;;;;11.18;5.60;;;;;;;;;;4985707;28;20057;-89
2024/01/26 13:45:20;;;;;;;10.48;5.05;;;;;;;;;;4986388;28;20045;-82
2024/01/26 13:47:45;;;;;;;10.20;5.13;;;;;;;;;;4984896;28;20121;-82
2024/01/26 13:50:10;;;;;;;10.48;5.22;;;;;;;;;;4986193;28;20441;-83
2024/01/26 13:52:36;;;;;;;9.80;5.18;;;;;;;;;;4985046;28;20125;-83
2024/01/26 13:55:01;;;;;;;8.25;4.68;;;;;;;;;;4985707;28;20537;-83
2024/01/26 13:57:28;;;;;;;10.68;4.80;;;;;;;;;;4985784;28;20050;-83
2024/01/26 13:59:54;;;;;;;7.53;4.37;;;;;;;;;;4983708;28;20042;-83
2024/01/26 14:02:19;;;;;;;7.95;4.78;;;;;;;;;;4985721;28;20482;-82
2024/01/26 14:04:44;;;;;;;8.43;4.18;;;;;;;;;;4985922;28;20026;-81
2024/01/26 14:07:10;;;;;;;9.55;4.65;;;;;;;;;;4978799;28;20040;-82
2024/01/26 14:09:35;;;;;;;7.55;4.43;;;;;;;;;;4982923;28;20029;-81
2024/01/26 14:12:02;;;;;;;7.72;4.72;;;;;;;;;;4969918;28;20038;-81
2024/01/26 14:14:29;;;;;;;7.72;4.68;;;;;;;;;;4986639;28;20042;-82
2024/01/26 14:16:54;;;;;;;7.20;4.35;;;;;;;;;;4999145;28;20556;-81
2024/01/26 14:19:21;;;;;;;7.43;4.40;;;;;;;;;;4998155;28;20038;-81
2024/01/26 14:21:47;;;;;;;11.10;4.47;;;;;;;;;;4970062;28;20501;-82
2024/01/26 14:24:12;;;;;;;7.65;4.10;;;;;;;;;;4960223;28;20038;-83
2024/01/26 14:26:38;;;;;;;8.55;4.05;;;;;;;;;;4986679;28;20474;-81
2024/01/26 14:29:10;;;;;;;9.80;4.65;;;;;;;;;;4965293;28;20042;-82
2024/01/26 14:31:35;;;;;;;8.82;4.68;;;;;;;;;;4979516;28;20054;-82
2024/01/26 14:34:01;;;;;;;6.90;4.15;;;;;;;;;;4986517;28;20073;-82
2024/01/26 14:36:26;;;;;;;7.53;4.68;;;;;;;;;;4974810;28;20029;-82
2024/01/26 14:38:52;;;;;;;8.38;3.97;;;;;;;;;;5009486;28;20034;-81
2024/01/26 14:41:17;;;;;;;9.32;4.07;;;;;;;;;;4976690;28;20034;-81